createdAt,value
2022-12-25T00:04:20.092Z,17.73
2022-12-25T00:09:25.696Z,17.97
2022-12-25T00:14:30.363Z,18.60
2022-12-25T00:19:34.771Z,17.27
2022-12-25T00:24:41.161Z,21.85
2022-12-25T00:29:45.667Z,27.27
2022-12-25T00:34:50.229Z,44.30
2022-12-25T00:39:55.927Z,51.65
2022-12-25T00:45:02.069Z,47.65
2022-12-25T00:50:09.046Z,38.28
2022-12-25T00:55:15.124Z,29.88
2022-12-25T01:00:20.072Z,26.75
2022-12-25T01:10:29.958Z,26.23
2022-12-25T01:15:35.751Z,30.00
2022-12-25T01:20:40.214Z,30.48
2022-12-25T01:25:48.725Z,27.08
2022-12-25T01:30:53.417Z,33.03
2022-12-25T01:35:58.726Z,34.72
2022-12-25T01:41:05.795Z,21.70
2022-12-25T01:46:10.414Z,23.83
2022-12-25T01:56:32.580Z,24.88
2022-12-25T02:01:37.666Z,26.95
2022-12-25T02:06:43.193Z,28.05
2022-12-25T02:11:58.228Z,25.25
2022-12-25T02:17:10.705Z,26.38
2022-12-25T02:22:27.188Z,19.60
2022-12-25T02:28:02.375Z,22.80
2022-12-25T02:33:32.370Z,18.90
2022-12-25T02:39:02.336Z,20.00
2022-12-25T02:44:31.751Z,19.77
2022-12-25T02:49:58.481Z,18.65
2022-12-25T02:55:26.505Z,18.70
2022-12-25T03:00:54.491Z,21.90
2022-12-25T03:06:21.938Z,23.27
2022-12-25T03:11:32.345Z,22.85
2022-12-25T03:16:53.907Z,20.65
2022-12-25T03:22:16.975Z,15.98
2022-12-25T03:27:21.329Z,21.30
2022-12-25T03:32:38.287Z,16.23
2022-12-25T03:38:12.395Z,16.30
2022-12-25T03:43:44.687Z,17.83
2022-12-25T03:49:15.119Z,19.25
2022-12-25T03:54:44.076Z,16.10
2022-12-25T04:00:06.177Z,17.13
2022-12-25T04:05:32.175Z,16.80
2022-12-25T04:10:54.094Z,17.50
2022-12-25T04:16:16.284Z,17.13
2022-12-25T04:21:39.761Z,16.98
2022-12-25T04:27:01.758Z,20.15
2022-12-25T04:32:24.706Z,15.43
2022-12-25T04:37:30.709Z,15.80
2022-12-25T04:42:35.232Z,13.48
2022-12-25T04:47:39.812Z,13.98
2022-12-25T04:52:45.673Z,17.30
2022-12-25T04:57:50.056Z,15.32
2022-12-25T05:02:54.656Z,15.82
2022-12-25T05:13:05.421Z,15.77
2022-12-25T05:18:10.041Z,17.63
2022-12-25T05:23:16.015Z,13.80
2022-12-25T05:28:20.420Z,15.45
2022-12-25T05:33:24.694Z,13.40
2022-12-25T05:38:30.280Z,20.73
2022-12-25T05:43:34.800Z,9.90
2022-12-25T05:48:39.924Z,13.93
2022-12-25T05:53:45.973Z,13.90
2022-12-25T05:58:50.722Z,14.65
2022-12-25T06:03:55.967Z,15.55
2022-12-25T06:14:06.197Z,18.33
2022-12-25T06:24:21.433Z,13.50
2022-12-25T06:29:26.115Z,14.95
2022-12-25T06:34:30.527Z,13.73
2022-12-25T06:39:36.589Z,19.60
2022-12-25T06:44:41.066Z,16.42
2022-12-25T06:49:45.285Z,16.08
2022-12-25T06:54:52.184Z,22.48
2022-12-25T06:59:56.689Z,11.20
2022-12-25T07:05:02.366Z,15.50
2022-12-25T07:10:10.149Z,17.35
2022-12-25T07:15:14.565Z,16.13
2022-12-25T07:20:19.219Z,12.27
2022-12-25T07:25:30.909Z,18.08
2022-12-25T07:30:41.242Z,11.88
2022-12-25T07:35:45.762Z,16.90
2022-12-25T07:40:51.458Z,17.08
2022-12-25T07:45:58.740Z,13.88
2022-12-25T07:51:06.123Z,17.17
2022-12-25T07:56:17.255Z,13.57
2022-12-25T08:01:24.986Z,17.67
2022-12-25T08:06:33.589Z,23.23
2022-12-25T08:11:40.025Z,27.17
2022-12-25T08:16:47.153Z,31.98
2022-12-25T08:21:51.721Z,34.42
2022-12-25T08:26:58.237Z,35.33
2022-12-25T08:32:02.930Z,31.30
2022-12-25T08:37:07.652Z,28.55
2022-12-25T08:42:15.406Z,33.58
2022-12-25T08:47:19.756Z,38.05
2022-12-25T08:52:24.394Z,29.42
2022-12-25T08:57:30.164Z,29.17
2022-12-25T09:02:34.789Z,30.08
2022-12-25T09:07:40.937Z,38.03
2022-12-25T09:12:46.599Z,38.72
2022-12-25T09:17:50.944Z,41.00
2022-12-25T09:22:55.589Z,40.97
2022-12-25T09:28:01.233Z,40.13
2022-12-25T09:33:05.872Z,48.67
2022-12-25T09:38:10.480Z,42.92
2022-12-25T09:43:21.738Z,37.42
2022-12-25T09:48:29.873Z,35.95
2022-12-25T09:53:40.836Z,34.38
2022-12-25T09:58:46.857Z,26.45
2022-12-25T10:04:21.576Z,29.67
2022-12-25T10:10:00.835Z,28.38
2022-12-25T10:15:23.133Z,22.42
2022-12-25T10:20:41.440Z,24.45
2022-12-25T10:25:47.600Z,21.88
2022-12-25T10:30:54.611Z,19.27
2022-12-25T10:36:00.286Z,26.45
2022-12-25T10:41:28.963Z,24.80
2022-12-25T10:46:34.973Z,23.83
2022-12-25T10:51:40.957Z,19.40
2022-12-25T10:56:55.164Z,24.15
2022-12-25T11:02:17.172Z,32.40
2022-12-25T11:07:27.350Z,25.75
2022-12-25T11:12:38.535Z,25.67
2022-12-25T11:17:50.582Z,19.75
2022-12-25T11:22:55.126Z,17.83
2022-12-25T11:33:13.414Z,21.60
2022-12-25T11:38:17.653Z,14.15
2022-12-25T11:43:26.699Z,12.93
2022-12-25T11:48:37.913Z,17.30
2022-12-25T11:53:48.159Z,18.30
2022-12-25T11:58:55.891Z,24.60
2022-12-25T12:04:04.056Z,25.80
2022-12-25T12:09:26.129Z,24.48
2022-12-25T12:14:46.833Z,23.83
2022-12-25T12:19:52.685Z,20.88
2022-12-25T12:25:03.714Z,19.75
2022-12-25T12:30:24.366Z,15.30
2022-12-25T12:35:36.011Z,17.45
2022-12-25T12:40:44.187Z,14.93
2022-12-25T12:45:57.323Z,15.70
2022-12-25T12:51:09.459Z,19.65
2022-12-25T12:56:17.092Z,13.63
2022-12-25T13:01:42.384Z,14.88
2022-12-25T13:11:59.627Z,20.17
2022-12-25T13:17:08.076Z,21.98
2022-12-25T13:22:25.828Z,13.57
2022-12-25T13:27:32.807Z,17.67
2022-12-25T13:32:38.851Z,17.95
2022-12-25T13:37:46.362Z,18.88
2022-12-25T13:42:53.452Z,21.42
2022-12-25T13:47:58.393Z,21.33
2022-12-25T13:53:14.153Z,27.55
2022-12-25T13:58:27.765Z,30.65
2022-12-25T14:03:38.013Z,22.60
2022-12-25T14:08:48.562Z,28.23
2022-12-25T14:13:57.484Z,32.95
2022-12-25T14:19:03.810Z,33.13
2022-12-25T14:24:16.068Z,35.10
2022-12-25T14:29:26.574Z,39.63
2022-12-25T14:34:33.601Z,45.13
2022-12-25T14:39:40.122Z,55.05
2022-12-25T14:44:44.477Z,47.38
2022-12-25T14:49:49.294Z,44.08
2022-12-25T14:54:59.145Z,49.08
2022-12-25T15:00:09.492Z,54.17
2022-12-25T15:05:34.095Z,54.90
2022-12-25T15:16:14.770Z,50.08
2022-12-25T15:21:26.819Z,51.90
2022-12-25T15:26:35.898Z,55.85
2022-12-25T15:31:41.807Z,55.60
2022-12-25T15:36:46.376Z,65.80
2022-12-25T15:42:05.815Z,59.55
2022-12-25T15:47:12.327Z,57.65
2022-12-25T15:52:18.418Z,69.15
2022-12-25T15:57:26.435Z,81.68
2022-12-25T16:02:30.780Z,73.22
2022-12-25T16:07:36.310Z,81.50
2022-12-25T16:12:42.203Z,82.05
2022-12-25T16:17:46.657Z,76.07
2022-12-25T16:22:51.291Z,71.13
2022-12-25T16:27:57.434Z,74.07
2022-12-25T16:33:01.735Z,78.10
2022-12-25T16:38:06.413Z,78.35
2022-12-25T16:43:12.512Z,76.43
2022-12-25T16:48:17.136Z,67.25
2022-12-25T16:53:21.431Z,63.90
2022-12-25T16:58:26.981Z,65.32
2022-12-25T17:03:32.713Z,72.93
2022-12-25T17:08:37.435Z,75.90
2022-12-25T17:13:47.335Z,71.78
2022-12-25T17:18:55.444Z,75.18
2022-12-25T17:24:03.675Z,66.70
2022-12-25T17:29:10.805Z,76.60
2022-12-25T17:34:15.730Z,81.75
2022-12-25T17:44:25.558Z,69.95
2022-12-25T17:49:30.105Z,71.35
2022-12-25T17:54:34.885Z,68.45
2022-12-25T17:59:40.728Z,69.97
2022-12-25T18:04:45.203Z,66.90
2022-12-25T18:09:49.378Z,70.05
2022-12-25T18:14:55.260Z,71.95
2022-12-25T18:19:59.824Z,64.60
2022-12-25T18:25:05.598Z,65.05
2022-12-25T18:35:16.114Z,71.20
2022-12-25T18:40:20.409Z,56.75
2022-12-25T18:45:27.231Z,46.55
2022-12-25T18:50:32.136Z,50.70
2022-12-25T18:55:36.527Z,45.58
2022-12-25T19:00:42.463Z,51.70
2022-12-25T19:05:46.666Z,46.90
2022-12-25T19:10:51.260Z,58.60
2022-12-25T19:16:01.037Z,61.38
2022-12-25T19:21:07.730Z,53.08
2022-12-25T19:26:13.159Z,56.08
2022-12-25T19:31:20.192Z,51.85
2022-12-25T19:36:24.584Z,74.07
2022-12-25T19:41:29.146Z,71.90
2022-12-25T19:46:36.995Z,60.15
2022-12-25T19:51:44.054Z,70.47
2022-12-25T19:56:49.686Z,65.53
2022-12-25T20:01:56.025Z,75.20
2022-12-25T20:07:02.034Z,70.43
2022-12-25T20:12:08.686Z,60.63
2022-12-25T20:17:16.224Z,59.63
2022-12-25T20:22:20.750Z,66.95
2022-12-25T20:27:25.425Z,60.53
2022-12-25T20:32:32.339Z,56.30
2022-12-25T20:37:37.082Z,53.58
2022-12-25T20:42:43.262Z,53.58
2022-12-25T20:47:49.279Z,53.35
2022-12-25T20:52:55.414Z,45.28
2022-12-25T20:57:59.842Z,45.70
2022-12-25T21:03:05.975Z,36.15
2022-12-25T21:08:10.339Z,46.05
2022-12-25T21:13:14.825Z,36.42
2022-12-25T21:18:23.646Z,35.22
2022-12-25T21:23:30.067Z,39.70
2022-12-25T21:28:36.207Z,42.20
2022-12-25T21:33:58.184Z,45.65
2022-12-25T21:39:06.480Z,51.97
2022-12-25T21:44:12.299Z,45.22
2022-12-25T21:49:38.389Z,46.85
2022-12-25T21:54:44.524Z,42.88
2022-12-25T21:59:49.862Z,44.33
2022-12-25T22:04:55.729Z,41.22
2022-12-25T22:10:00.244Z,45.85
2022-12-25T22:15:07.384Z,40.00
2022-12-25T22:20:17.277Z,35.35
2022-12-25T22:25:22.354Z,30.65
2022-12-25T22:30:29.945Z,36.75
2022-12-25T22:35:35.553Z,41.47
2022-12-25T22:40:39.922Z,40.25
2022-12-25T22:45:44.619Z,42.88
2022-12-25T22:50:50.656Z,37.22
2022-12-25T22:55:55.067Z,42.08
2022-12-25T23:00:59.647Z,31.73
2022-12-25T23:06:05.546Z,36.55
2022-12-25T23:11:09.976Z,32.92
2022-12-25T23:16:15.310Z,41.35
2022-12-25T23:21:38.427Z,32.28
2022-12-25T23:26:42.941Z,34.60
2022-12-25T23:31:53.560Z,35.30
2022-12-25T23:36:59.320Z,34.17
2022-12-25T23:42:03.953Z,31.40
2022-12-25T23:47:08.664Z,41.97
2022-12-25T23:52:14.829Z,31.85
2022-12-25T23:57:19.055Z,35.92
